createdAt,value
2022-09-17T00:01:39.538Z,3.57
2022-09-17T00:04:07.661Z,2.50
2022-09-17T00:06:37.450Z,3.27
2022-09-17T00:09:06.591Z,2.97
2022-09-17T00:11:37.826Z,3.03
2022-09-17T00:14:10.198Z,2.63
2022-09-17T00:16:40.514Z,3.17
2022-09-17T00:19:14.438Z,2.57
2022-09-17T00:21:43.197Z,3.33
2022-09-17T00:24:14.202Z,3.40
2022-09-17T00:26:42.869Z,2.90
2022-09-17T00:29:13.310Z,3.13
2022-09-17T00:31:41.791Z,3.00
2022-09-17T00:34:10.269Z,2.60
2022-09-17T00:36:40.488Z,2.87
2022-09-17T00:39:12.440Z,2.57
2022-09-17T00:41:40.793Z,2.83
2022-09-17T00:44:53.240Z,2.87
2022-09-17T00:47:31.094Z,2.47
2022-09-17T00:50:04.368Z,2.73
2022-09-17T00:52:37.318Z,2.70
2022-09-17T00:55:14.041Z,3.07
2022-09-17T00:57:43.328Z,2.67
2022-09-17T01:00:15.006Z,2.43
2022-09-17T01:02:45.018Z,2.80
2022-09-17T01:05:14.543Z,2.57
2022-09-17T01:08:03.432Z,2.50
2022-09-17T01:10:49.103Z,2.60
2022-09-17T01:13:28.374Z,3.27
2022-09-17T01:16:08.828Z,2.50
2022-09-17T01:18:54.183Z,3.03
2022-09-17T01:21:50.048Z,3.07
2022-09-17T01:24:48.357Z,3.07
2022-09-17T01:28:18.270Z,2.80
2022-09-17T01:31:19.696Z,3.17
2022-09-17T01:34:03.452Z,2.63
2022-09-17T01:36:54.639Z,3.20
2022-09-17T01:39:34.527Z,3.13
2022-09-17T01:42:15.324Z,2.83
2022-09-17T01:44:53.260Z,3.57
2022-09-17T01:47:27.397Z,2.40
2022-09-17T01:50:01.630Z,3.10
2022-09-17T01:52:33.038Z,2.67
2022-09-17T01:55:07.315Z,2.90
2022-09-17T01:57:41.903Z,2.90
2022-09-17T02:00:13.749Z,2.97
2022-09-17T02:02:47.698Z,3.43
2022-09-17T02:05:20.524Z,3.30
2022-09-17T02:07:55.041Z,3.53
2022-09-17T02:10:27.473Z,3.10
2022-09-17T02:13:02.041Z,3.03
2022-09-17T02:15:37.713Z,3.10
2022-09-17T02:18:15.041Z,3.13
2022-09-17T02:20:48.644Z,3.20
2022-09-17T02:23:22.603Z,3.17
2022-09-17T02:26:00.746Z,3.27
2022-09-17T02:28:42.471Z,2.80
2022-09-17T02:31:11.857Z,3.20
2022-09-17T02:33:43.667Z,3.10
2022-09-17T02:36:11.763Z,2.90
2022-09-17T02:38:43.132Z,2.80
2022-09-17T02:41:17.877Z,3.60
2022-09-17T02:44:01.127Z,3.67
2022-09-17T02:46:46.738Z,3.10
2022-09-17T02:49:36.921Z,2.27
2022-09-17T02:52:15.792Z,3.43
2022-09-17T02:54:54.319Z,3.00
2022-09-17T02:57:31.132Z,2.60
2022-09-17T03:00:07.479Z,3.53
2022-09-17T03:02:41.380Z,3.13
2022-09-17T03:05:12.258Z,2.63
2022-09-17T03:07:40.440Z,2.40
2022-09-17T03:10:10.145Z,2.70
2022-09-17T03:12:38.550Z,2.97
2022-09-17T03:15:08.062Z,2.70
2022-09-17T03:17:36.562Z,2.80
2022-09-17T03:20:06.211Z,3.00
2022-09-17T03:22:35.725Z,2.47
2022-09-17T03:25:03.911Z,2.93
2022-09-17T03:27:32.005Z,2.73
2022-09-17T03:30:00.244Z,3.40
2022-09-17T03:32:28.297Z,2.63
2022-09-17T03:34:56.564Z,2.60
2022-09-17T03:37:24.652Z,3.00
2022-09-17T03:39:54.127Z,2.70
2022-09-17T03:42:22.185Z,2.77
2022-09-17T03:44:50.686Z,3.10
2022-09-17T03:47:18.821Z,3.43
2022-09-17T03:49:46.902Z,2.73
2022-09-17T03:52:15.181Z,2.47
2022-09-17T03:54:43.362Z,2.67
2022-09-17T03:57:12.869Z,2.90
2022-09-17T03:59:40.914Z,2.67
2022-09-17T04:02:09.059Z,2.43
2022-09-17T04:04:37.782Z,2.60
2022-09-17T04:07:06.182Z,1.97
2022-09-17T04:09:35.363Z,1.97
2022-09-17T04:12:04.233Z,1.60
2022-09-17T04:14:33.650Z,2.10
2022-09-17T04:17:01.724Z,1.40
2022-09-17T04:19:29.832Z,1.60
2022-09-17T04:21:57.962Z,1.60
2022-09-17T04:24:26.062Z,1.43
2022-09-17T04:26:54.115Z,1.60
2022-09-17T04:29:22.230Z,1.97
2022-09-17T04:31:51.652Z,1.43
2022-09-17T04:34:19.827Z,1.90
2022-09-17T04:36:47.827Z,1.70
2022-09-17T04:39:17.285Z,1.93
2022-09-17T04:41:45.790Z,1.20
2022-09-17T04:44:13.928Z,1.30
2022-09-17T04:46:42.018Z,1.47
2022-09-17T04:49:12.471Z,1.63
2022-09-17T04:51:40.515Z,1.90
2022-09-17T04:54:08.962Z,1.30
2022-09-17T04:56:36.981Z,1.50
2022-09-17T04:59:05.193Z,1.30
2022-09-17T05:01:33.262Z,2.03
2022-09-17T05:04:07.838Z,1.73
2022-09-17T05:06:37.978Z,1.77
2022-09-17T05:09:06.037Z,1.60
2022-09-17T05:11:34.068Z,1.60
2022-09-17T05:14:02.288Z,2.33
2022-09-17T05:16:30.659Z,2.30
2022-09-17T05:18:58.899Z,1.80
2022-09-17T05:21:27.151Z,2.83
2022-09-17T05:23:56.879Z,2.53
2022-09-17T05:26:25.409Z,1.80
2022-09-17T05:28:53.693Z,2.17
2022-09-17T05:31:21.792Z,1.90
2022-09-17T05:33:49.973Z,2.17
2022-09-17T05:36:18.153Z,2.40
2022-09-17T05:38:46.284Z,1.63
2022-09-17T05:41:15.863Z,2.63
2022-09-17T05:43:44.786Z,3.27
2022-09-17T05:46:12.918Z,2.53
2022-09-17T05:48:40.999Z,1.93
2022-09-17T05:51:09.100Z,2.53
2022-09-17T05:53:37.854Z,1.83
2022-09-17T05:56:06.546Z,1.83
2022-09-17T05:58:35.958Z,1.90
2022-09-17T06:01:04.349Z,2.30
2022-09-17T06:03:32.447Z,2.43
2022-09-17T06:06:01.686Z,2.97
2022-09-17T06:08:30.639Z,2.53
2022-09-17T06:11:02.261Z,2.40
2022-09-17T06:13:30.899Z,2.40
2022-09-17T06:16:00.751Z,1.80
2022-09-17T06:18:29.533Z,2.03
2022-09-17T06:20:59.530Z,1.83
2022-09-17T06:23:29.156Z,2.10
2022-09-17T06:25:59.825Z,1.70
2022-09-17T06:28:29.021Z,1.93
2022-09-17T06:31:03.454Z,2.10
2022-09-17T06:33:32.910Z,1.90
2022-09-17T06:36:03.390Z,2.03
2022-09-17T06:38:34.465Z,2.10
2022-09-17T06:41:03.007Z,1.97
2022-09-17T06:43:31.642Z,2.13
2022-09-17T06:46:03.573Z,2.37
2022-09-17T06:48:35.296Z,1.47
2022-09-17T06:51:05.987Z,1.80
2022-09-17T06:53:34.513Z,1.23
2022-09-17T06:56:06.484Z,1.50
2022-09-17T06:58:37.044Z,1.87
2022-09-17T07:01:07.034Z,2.07
2022-09-17T07:03:37.347Z,2.40
2022-09-17T07:06:06.313Z,1.43
2022-09-17T07:08:35.424Z,1.60
2022-09-17T07:11:03.635Z,1.83
2022-09-17T07:13:31.733Z,1.70
2022-09-17T07:16:01.474Z,1.60
2022-09-17T07:18:31.189Z,1.70
2022-09-17T07:21:01.247Z,1.70
2022-09-17T07:23:31.225Z,1.57
2022-09-17T07:26:03.169Z,1.53
2022-09-17T07:28:31.384Z,1.97
2022-09-17T07:30:59.567Z,1.70
2022-09-17T07:33:30.015Z,1.50
2022-09-17T07:36:00.056Z,1.60
2022-09-17T07:38:29.643Z,1.93
2022-09-17T07:41:00.074Z,1.87
2022-09-17T07:43:29.707Z,1.80
2022-09-17T07:46:00.822Z,1.90
2022-09-17T07:48:31.287Z,2.07
2022-09-17T07:50:59.891Z,1.90
2022-09-17T07:53:28.539Z,1.80
2022-09-17T07:55:58.639Z,1.40
2022-09-17T07:58:31.755Z,1.93
2022-09-17T08:01:03.343Z,1.57
2022-09-17T08:03:33.396Z,2.13
2022-09-17T08:06:06.007Z,1.63
2022-09-17T08:08:35.864Z,1.70
2022-09-17T08:11:04.437Z,1.90
2022-09-17T08:13:32.775Z,2.10
2022-09-17T08:16:02.939Z,1.70
2022-09-17T08:18:32.994Z,1.40
2022-09-17T08:21:03.186Z,1.50
2022-09-17T08:23:33.219Z,2.10
2022-09-17T08:26:02.590Z,1.20
2022-09-17T08:28:32.641Z,1.60
2022-09-17T08:31:03.389Z,1.30
2022-09-17T08:33:34.694Z,2.27
2022-09-17T08:36:03.637Z,1.90
2022-09-17T08:38:37.927Z,1.53
2022-09-17T08:41:25.607Z,1.77
2022-09-17T08:44:07.408Z,1.80
2022-09-17T08:46:48.188Z,1.57
2022-09-17T08:49:31.445Z,1.70
2022-09-17T08:53:02.695Z,1.40
2022-09-17T08:55:41.379Z,2.07
2022-09-17T08:58:39.526Z,2.30
2022-09-17T09:01:25.579Z,2.03
2022-09-17T09:04:18.461Z,2.27
2022-09-17T09:06:52.858Z,1.50
2022-09-17T09:09:26.638Z,1.30
2022-09-17T09:12:10.512Z,2.37
2022-09-17T09:14:50.015Z,1.87
2022-09-17T09:17:22.668Z,1.93
2022-09-17T09:19:52.985Z,2.27
2022-09-17T09:22:41.759Z,2.20
2022-09-17T09:25:23.266Z,1.97
2022-09-17T09:28:19.292Z,1.50
2022-09-17T09:31:10.514Z,1.70
2022-09-17T09:33:47.583Z,1.60
2022-09-17T09:36:21.689Z,1.90
2022-09-17T09:38:57.644Z,1.50
2022-09-17T09:41:33.304Z,1.73
2022-09-17T09:44:05.718Z,1.40
2022-09-17T09:47:05.121Z,1.43
2022-09-17T09:49:58.507Z,1.17
2022-09-17T09:52:45.124Z,2.27
2022-09-17T09:55:41.081Z,1.60
2022-09-17T09:58:21.129Z,1.60
2022-09-17T10:00:49.550Z,1.67
2022-09-17T10:03:22.583Z,1.83
2022-09-17T10:05:59.453Z,1.37
2022-09-17T10:08:29.444Z,1.97
2022-09-17T10:11:02.598Z,1.97
2022-09-17T10:13:35.562Z,1.73
2022-09-17T10:16:20.315Z,1.70
2022-09-17T10:18:49.945Z,1.77
2022-09-17T10:21:23.554Z,1.83
2022-09-17T10:23:52.299Z,1.90
2022-09-17T10:26:28.697Z,1.60
2022-09-17T10:28:58.526Z,2.00
2022-09-17T10:31:26.805Z,1.63
2022-09-17T10:34:00.423Z,1.70
2022-09-17T10:36:43.469Z,2.03
2022-09-17T10:39:38.635Z,1.90
2022-09-17T10:42:16.271Z,1.40
2022-09-17T10:44:54.640Z,1.77
2022-09-17T10:47:28.970Z,1.80
2022-09-17T10:50:01.442Z,2.70
2022-09-17T10:52:34.293Z,1.77
2022-09-17T10:55:24.326Z,1.90
2022-09-17T10:58:25.599Z,1.37
2022-09-17T11:01:09.762Z,1.63
2022-09-17T11:04:23.474Z,1.47
2022-09-17T11:07:23.470Z,1.50
2022-09-17T11:10:00.686Z,1.97
2022-09-17T11:13:03.942Z,2.03
2022-09-17T11:15:52.840Z,2.07
2022-09-17T11:18:37.501Z,2.20
2022-09-17T11:21:37.732Z,1.90
2022-09-17T11:25:10.028Z,1.80
2022-09-17T11:28:07.658Z,1.53
2022-09-17T11:30:50.737Z,1.67
2022-09-17T11:33:47.454Z,1.87
2022-09-17T11:36:22.242Z,1.70
2022-09-17T11:38:52.493Z,1.93
2022-09-17T11:41:24.653Z,1.93
2022-09-17T11:44:05.434Z,1.77
2022-09-17T11:46:41.585Z,1.60
2022-09-17T11:49:19.547Z,1.80
2022-09-17T11:51:52.567Z,2.33
2022-09-17T11:54:27.286Z,2.17
2022-09-17T11:57:04.415Z,2.10
2022-09-17T11:59:39.800Z,2.20
2022-09-17T12:02:22.708Z,2.20
2022-09-17T12:05:01.661Z,1.90
2022-09-17T12:07:42.409Z,1.70
2022-09-17T12:10:31.097Z,1.73
2022-09-17T12:13:08.638Z,2.17
2022-09-17T12:15:42.084Z,2.10
2022-09-17T12:18:32.237Z,2.00
2022-09-17T12:21:05.688Z,1.60
2022-09-17T12:23:43.738Z,2.17
2022-09-17T12:26:29.281Z,1.80
2022-09-17T12:29:07.001Z,2.50
2022-09-17T12:31:46.462Z,1.50
2022-09-17T12:34:37.483Z,1.67
2022-09-17T12:37:12.598Z,1.50
2022-09-17T12:40:20.449Z,1.70
2022-09-17T12:43:18.623Z,1.50
2022-09-17T12:46:29.974Z,1.67
2022-09-17T12:49:31.251Z,2.50
2022-09-17T12:52:02.570Z,2.00
2022-09-17T12:54:58.434Z,1.63
2022-09-17T12:57:39.677Z,1.57
2022-09-17T13:00:13.237Z,1.90
2022-09-17T13:02:47.464Z,1.77
2022-09-17T13:05:46.400Z,1.60
2022-09-17T13:08:53.487Z,1.50
2022-09-17T13:12:18.095Z,1.63
2022-09-17T13:15:25.117Z,2.10
2022-09-17T13:18:13.335Z,2.33
2022-09-17T13:21:02.961Z,1.73
2022-09-17T13:23:36.526Z,2.00
2022-09-17T13:26:06.766Z,2.10
2022-09-17T13:28:47.214Z,1.80
2022-09-17T13:31:23.127Z,1.73
2022-09-17T13:34:29.719Z,2.27
2022-09-17T13:37:00.600Z,1.80
2022-09-17T13:39:43.320Z,1.90
2022-09-17T13:42:18.421Z,1.90
2022-09-17T13:44:52.621Z,1.53
2022-09-17T13:47:28.353Z,1.73
2022-09-17T13:50:02.285Z,1.60
2022-09-17T13:52:39.540Z,2.07
2022-09-17T13:55:09.709Z,1.90
2022-09-17T13:57:51.262Z,2.13
2022-09-17T14:00:56.397Z,2.07
2022-09-17T14:03:57.062Z,1.93
2022-09-17T14:06:53.810Z,2.13
2022-09-17T14:09:51.464Z,2.23
2022-09-17T14:12:59.998Z,2.47
2022-09-17T14:16:03.246Z,1.93
2022-09-17T14:18:58.767Z,1.50
2022-09-17T14:21:32.944Z,1.67
2022-09-17T14:24:04.820Z,1.50
2022-09-17T14:27:16.081Z,1.90
2022-09-17T14:30:12.233Z,1.60
2022-09-17T14:32:46.700Z,2.43
2022-09-17T14:35:23.560Z,2.07
2022-09-17T14:37:59.458Z,1.80
2022-09-17T14:40:28.965Z,2.10
2022-09-17T14:43:00.044Z,2.10
2022-09-17T14:45:32.870Z,1.87
2022-09-17T14:48:31.494Z,2.00
2022-09-17T14:51:30.060Z,1.70
2022-09-17T14:54:26.567Z,1.37
2022-09-17T14:57:01.615Z,2.00
2022-09-17T14:59:45.018Z,2.40
2022-09-17T15:02:31.122Z,2.43
2022-09-17T15:05:00.148Z,1.80
2022-09-17T15:07:30.293Z,1.70
2022-09-17T15:10:10.186Z,1.93
2022-09-17T15:12:41.027Z,2.10
2022-09-17T15:15:20.313Z,2.00
2022-09-17T15:17:49.587Z,1.90
2022-09-17T15:20:22.317Z,2.50
2022-09-17T15:22:57.658Z,2.17
2022-09-17T15:25:30.948Z,2.00
2022-09-17T15:28:05.090Z,1.90
2022-09-17T15:30:34.596Z,2.07
2022-09-17T15:33:02.905Z,1.97
2022-09-17T15:35:33.322Z,2.13
2022-09-17T15:38:22.345Z,2.43
2022-09-17T15:40:51.821Z,2.10
2022-09-17T15:43:27.222Z,1.83
2022-09-17T15:46:00.659Z,2.23
2022-09-17T15:48:39.444Z,2.23
2022-09-17T15:51:24.263Z,1.73
2022-09-17T15:53:54.174Z,1.97
2022-09-17T15:56:25.359Z,2.40
2022-09-17T15:59:01.122Z,2.37
2022-09-17T16:01:57.031Z,1.90
2022-09-17T16:04:31.600Z,2.00
2022-09-17T16:07:28.570Z,2.23
2022-09-17T16:09:59.236Z,2.10
2022-09-17T16:12:29.809Z,2.73
2022-09-17T16:15:00.770Z,2.17
2022-09-17T16:17:43.325Z,1.67
2022-09-17T16:20:17.748Z,1.67
2022-09-17T16:22:47.869Z,1.40
2022-09-17T16:25:17.283Z,1.70
2022-09-17T16:27:51.378Z,1.33
2022-09-17T16:30:21.818Z,1.73
2022-09-17T16:32:52.063Z,3.17
2022-09-17T16:35:22.680Z,1.73
2022-09-17T16:37:51.721Z,1.70
2022-09-17T16:40:21.614Z,2.03
2022-09-17T16:42:49.887Z,1.70
2022-09-17T16:45:18.491Z,2.20
2022-09-17T16:47:46.599Z,2.27
2022-09-17T16:50:18.650Z,1.60
2022-09-17T16:52:47.609Z,1.60
2022-09-17T16:55:18.694Z,1.77
2022-09-17T16:57:47.680Z,1.70
2022-09-17T17:00:22.913Z,1.53
2022-09-17T17:02:56.993Z,2.07
2022-09-17T17:05:28.235Z,1.47
2022-09-17T17:07:56.562Z,1.67
2022-09-17T17:10:26.466Z,1.70
2022-09-17T17:12:55.590Z,1.20
2022-09-17T17:15:23.939Z,1.23
2022-09-17T17:17:52.445Z,1.10
2022-09-17T17:20:21.091Z,1.40
2022-09-17T17:22:51.719Z,1.30
2022-09-17T17:25:20.421Z,1.33
2022-09-17T17:27:48.572Z,1.63
2022-09-17T17:30:17.643Z,1.97
2022-09-17T17:32:50.511Z,1.60
2022-09-17T17:35:18.993Z,1.10
2022-09-17T17:37:48.593Z,1.20
2022-09-17T17:40:18.330Z,1.20
2022-09-17T17:42:47.517Z,1.27
2022-09-17T17:45:15.918Z,1.40
2022-09-17T17:47:43.965Z,1.50
2022-09-17T17:50:12.094Z,1.50
2022-09-17T17:52:43.360Z,1.20
2022-09-17T17:55:11.513Z,0.93
2022-09-17T17:57:41.328Z,1.23
2022-09-17T18:00:12.181Z,1.40
2022-09-17T18:02:40.652Z,1.73
2022-09-17T18:05:11.630Z,1.80
2022-09-17T18:07:39.734Z,1.90
2022-09-17T18:10:08.672Z,1.87
2022-09-17T18:12:37.054Z,1.77
2022-09-17T18:15:08.787Z,1.70
2022-09-17T18:17:36.898Z,1.40
2022-09-17T18:20:06.350Z,2.13
2022-09-17T18:22:34.413Z,1.60
2022-09-17T18:25:03.059Z,1.83
2022-09-17T18:27:31.096Z,1.33
2022-09-17T18:29:59.128Z,1.60
2022-09-17T18:32:29.006Z,1.60
2022-09-17T18:34:57.836Z,1.90
2022-09-17T18:37:25.945Z,1.90
2022-09-17T18:39:58.776Z,2.80
2022-09-17T18:42:27.119Z,1.60
2022-09-17T18:44:55.193Z,1.73
2022-09-17T18:47:23.272Z,1.87
2022-09-17T18:49:52.668Z,2.30
2022-09-17T18:52:21.737Z,1.60
2022-09-17T18:54:50.403Z,2.00
2022-09-17T18:57:18.531Z,1.73
2022-09-17T18:59:47.122Z,2.10
2022-09-17T19:02:15.332Z,2.43
2022-09-17T19:04:43.406Z,2.57
2022-09-17T19:07:12.906Z,2.40
2022-09-17T19:09:41.010Z,3.00
2022-09-17T19:12:09.461Z,2.83
2022-09-17T19:14:37.571Z,3.10
2022-09-17T19:17:05.843Z,2.73
2022-09-17T19:19:33.908Z,2.20
2022-09-17T19:22:02.012Z,2.80
2022-09-17T19:24:31.462Z,2.50
2022-09-17T19:27:01.444Z,2.37
2022-09-17T19:29:29.569Z,2.53
2022-09-17T19:31:57.605Z,2.30
2022-09-17T19:34:25.807Z,2.90
2022-09-17T19:36:53.837Z,2.50
2022-09-17T19:39:21.891Z,3.03
2022-09-17T19:41:51.325Z,2.80
2022-09-17T19:44:19.599Z,2.13
2022-09-17T19:46:49.999Z,2.80
2022-09-17T19:49:18.588Z,2.37
2022-09-17T19:51:46.702Z,2.70
2022-09-17T19:54:15.283Z,2.63
2022-09-17T19:56:43.339Z,3.57
2022-09-17T19:59:12.788Z,2.37
2022-09-17T20:01:43.102Z,2.23
2022-09-17T20:04:14.051Z,2.70
2022-09-17T20:06:42.292Z,2.13
2022-09-17T20:09:11.041Z,2.20
2022-09-17T20:11:41.312Z,2.37
2022-09-17T20:14:12.036Z,1.90
2022-09-17T20:16:41.359Z,2.57
2022-09-17T20:19:09.711Z,2.33
2022-09-17T20:21:37.902Z,2.20
2022-09-17T20:24:07.616Z,2.37
2022-09-17T20:26:36.406Z,2.23
2022-09-17T20:29:05.423Z,2.20
2022-09-17T20:31:35.037Z,1.70
2022-09-17T20:34:04.161Z,2.00
2022-09-17T20:36:36.057Z,2.00
2022-09-17T20:39:16.724Z,1.80
2022-09-17T20:41:46.250Z,1.80
2022-09-17T20:44:14.503Z,2.20
2022-09-17T20:46:44.156Z,2.20
2022-09-17T20:49:12.244Z,1.83
2022-09-17T20:51:40.434Z,2.27
2022-09-17T20:54:08.881Z,2.97
2022-09-17T20:56:37.171Z,1.70
2022-09-17T20:59:14.392Z,2.63
2022-09-17T21:01:45.773Z,2.00
2022-09-17T21:04:16.800Z,1.63
2022-09-17T21:06:45.718Z,1.63
2022-09-17T21:09:16.692Z,2.10
2022-09-17T21:11:46.654Z,2.47
2022-09-17T21:14:17.307Z,3.00
2022-09-17T21:16:49.054Z,2.03
2022-09-17T21:19:17.216Z,2.80
2022-09-17T21:21:45.490Z,2.83
2022-09-17T21:24:13.666Z,2.17
2022-09-17T21:26:41.802Z,2.50
2022-09-17T21:29:10.071Z,2.50
2022-09-17T21:31:39.683Z,1.83
2022-09-17T21:34:12.557Z,1.50
2022-09-17T21:36:44.225Z,3.10
2022-09-17T21:39:15.264Z,1.97
2022-09-17T21:41:43.908Z,2.10
2022-09-17T21:44:13.161Z,1.87
2022-09-17T21:46:42.795Z,2.30
2022-09-17T21:49:13.844Z,2.40
2022-09-17T21:51:43.900Z,2.00
2022-09-17T21:54:16.952Z,1.90
2022-09-17T21:56:46.351Z,2.17
2022-09-17T21:59:16.791Z,2.13
2022-09-17T22:01:48.060Z,2.30
2022-09-17T22:04:19.416Z,2.37
2022-09-17T22:07:12.922Z,2.17
2022-09-17T22:09:41.020Z,2.23
2022-09-17T22:12:11.215Z,2.00
2022-09-17T22:14:39.271Z,2.50
2022-09-17T22:17:07.374Z,2.20
2022-09-17T22:19:36.875Z,2.30
2022-09-17T22:22:04.962Z,1.53
2022-09-17T22:24:33.029Z,2.10
2022-09-17T22:27:01.104Z,2.67
2022-09-17T22:29:31.536Z,1.60
2022-09-17T22:31:59.689Z,1.87
2022-09-17T22:34:27.781Z,1.77
2022-09-17T22:36:57.785Z,1.17
2022-09-17T22:39:25.891Z,1.50
2022-09-17T22:41:54.676Z,1.67
2022-09-17T22:44:22.694Z,1.27
2022-09-17T22:46:52.580Z,1.20
2022-09-17T22:49:21.349Z,1.43
2022-09-17T22:51:49.572Z,2.15
2022-09-17T22:54:20.046Z,1.83
2022-09-17T22:56:49.103Z,1.30
2022-09-17T22:59:18.065Z,1.70
2022-09-17T23:01:46.471Z,1.50
2022-09-17T23:04:14.591Z,1.13
2022-09-17T23:06:43.052Z,2.47
2022-09-17T23:09:13.119Z,1.50
2022-09-17T23:11:43.201Z,1.40
2022-09-17T23:14:13.927Z,2.00
2022-09-17T23:16:44.331Z,2.00
2022-09-17T23:19:13.118Z,2.17
2022-09-17T23:21:41.924Z,1.50
2022-09-17T23:24:11.443Z,1.50
2022-09-17T23:26:39.532Z,1.60
2022-09-17T23:29:08.962Z,1.80
2022-09-17T23:31:37.097Z,1.70
2022-09-17T23:34:07.348Z,2.10
2022-09-17T23:36:38.737Z,2.00
2022-09-17T23:39:09.137Z,1.63
2022-09-17T23:41:39.926Z,1.60
2022-09-17T23:44:14.890Z,1.80
2022-09-17T23:46:44.678Z,1.63
2022-09-17T23:49:15.048Z,1.80
2022-09-17T23:51:43.140Z,2.47
2022-09-17T23:54:11.677Z,1.97
2022-09-17T23:56:39.888Z,1.93
2022-09-17T23:59:10.740Z,1.83
